Bay Terrace, New York
Current Conditions -  °F | °C
As of 12:51 PM on Monday 24 Nov 2014 (Local Time) from KLGA Reporting Station
Broken Clouds Broken Clouds  
Wind Chill: 18°   Ceiling: 3500
Heat Index: 18°   Visibility: 10mi
Dew Point: 15°   Wind: 12mph
Humidity: 84%   Direction: 170°S
Pressure: 29.61"   Gusts: NA
Location:  40.7825°N, 73.7809°W
Report Text: KLGA 241751Z 17010KT 10SM BKN035 18/15 A2961 RMK AO2 SLP025 60000 T01780150 10178 20150 56019
Loading
Personal Weather Stations






























Interactive Weather Map New forecast layout! Learn more

10-Day Weather Forecast

Advertisements
Track Severe Weather on mobile